createdAt,value
2019-03-21T00:00:13.522Z,985.21
2019-03-21T00:01:23.445Z,985.17
2019-03-21T00:02:33.364Z,985.15
2019-03-21T00:03:43.290Z,985.14
2019-03-21T00:04:53.209Z,985.15
2019-03-21T00:06:03.224Z,985.1
2019-03-21T00:07:13.160Z,985.1
2019-03-21T00:08:23.079Z,985.12
2019-03-21T00:09:32.997Z,985.02
2019-03-21T00:10:42.913Z,984.98
2019-03-21T00:11:52.931Z,985.02
2019-03-21T00:13:02.622Z,984.98
2019-03-21T00:14:12.540Z,984.98
2019-03-21T00:15:22.459Z,984.95
2019-03-21T00:16:32.384Z,984.95
2019-03-21T00:17:42.302Z,984.97
2019-03-21T00:18:52.222Z,984.98
2019-03-21T00:20:02.148Z,984.98
2019-03-21T00:21:12.074Z,984.97
2019-03-21T00:22:21.991Z,984.93
2019-03-21T00:23:31.958Z,984.96
2019-03-21T00:24:41.878Z,984.93
2019-03-21T00:25:51.814Z,984.92
2019-03-21T00:27:01.731Z,984.86
2019-03-21T00:28:11.671Z,984.86
2019-03-21T00:29:21.705Z,984.92
2019-03-21T00:30:31.630Z,984.87
2019-03-21T00:31:41.562Z,984.89
2019-03-21T00:32:51.482Z,984.87
2019-03-21T00:34:01.401Z,984.8
2019-03-21T00:35:11.190Z,984.79
2019-03-21T00:36:21.117Z,984.74
2019-03-21T00:37:31.039Z,984.68
2019-03-21T00:38:40.961Z,984.72
2019-03-21T00:39:50.882Z,984.72
2019-03-21T00:41:00.872Z,984.72
2019-03-21T00:42:10.803Z,984.66
2019-03-21T00:43:20.730Z,984.71
2019-03-21T00:44:30.655Z,984.65
2019-03-21T00:46:24.609Z,984.61
2019-03-21T00:47:34.530Z,984.6
2019-03-21T00:48:44.471Z,984.62
2019-03-21T00:49:54.399Z,984.59
2019-03-21T00:51:04.335Z,984.57
2019-03-21T00:52:14.251Z,984.58
2019-03-21T00:53:24.174Z,984.54
2019-03-21T00:54:34.094Z,984.56
2019-03-21T00:55:44.011Z,984.6
2019-03-21T00:56:53.933Z,984.59
2019-03-21T00:58:04.461Z,984.6
2019-03-21T00:59:14.383Z,984.52
2019-03-21T01:00:24.347Z,984.52
2019-03-21T01:01:34.277Z,984.54
2019-03-21T01:02:44.201Z,984.44
2019-03-21T01:03:54.158Z,984.49
2019-03-21T01:05:03.840Z,984.49
2019-03-21T01:06:13.773Z,984.47
2019-03-21T01:07:23.694Z,984.43
2019-03-21T01:08:33.614Z,984.42
2019-03-21T01:09:43.634Z,984.39
2019-03-21T01:10:53.613Z,984.38
2019-03-21T01:12:03.543Z,984.41
2019-03-21T01:13:13.463Z,984.33
2019-03-21T01:14:29.574Z,984.32
2019-03-21T01:15:40.008Z,984.35
2019-03-21T01:16:49.926Z,984.33
2019-03-21T01:17:59.843Z,984.26
2019-03-21T01:19:09.762Z,984.2
2019-03-21T01:20:19.689Z,984.19
2019-03-21T01:21:29.606Z,984.06
2019-03-21T01:22:39.527Z,984.06
2019-03-21T01:23:49.482Z,983.99
2019-03-21T01:24:59.407Z,983.97
2019-03-21T01:26:09.401Z,983.97
2019-03-21T01:27:19.341Z,983.92
2019-03-21T01:28:29.268Z,983.92
2019-03-21T01:29:39.187Z,983.94
2019-03-21T01:30:49.110Z,983.94
2019-03-21T01:31:59.056Z,983.84
2019-03-21T01:33:09.079Z,983.76
2019-03-21T01:34:19.021Z,983.73
2019-03-21T01:35:28.956Z,983.69
2019-03-21T01:36:38.883Z,983.67
2019-03-21T01:37:48.883Z,983.68
2019-03-21T01:38:58.898Z,983.71
2019-03-21T01:40:08.818Z,983.68
2019-03-21T01:41:18.734Z,983.65
2019-03-21T01:42:28.690Z,983.63
2019-03-21T01:43:38.606Z,983.56
2019-03-21T01:44:48.534Z,983.56
2019-03-21T01:45:58.464Z,983.57
2019-03-21T01:47:08.384Z,983.55
2019-03-21T01:48:18.305Z,983.55
2019-03-21T01:49:28.230Z,983.54
2019-03-21T01:50:38.208Z,983.53
2019-03-21T01:51:48.127Z,983.46
2019-03-21T01:52:58.065Z,983.39
2019-03-21T01:54:07.987Z,983.37
2019-03-21T01:55:17.919Z,983.32
2019-03-21T01:56:27.945Z,983.31
2019-03-21T01:57:37.883Z,983.3
2019-03-21T01:58:47.806Z,983.26
2019-03-21T01:59:57.477Z,983.25
2019-03-21T02:01:08.780Z,983.2
2019-03-21T02:02:18.840Z,983.16
2019-03-21T02:03:28.763Z,983.11
2019-03-21T02:04:38.696Z,983.07
2019-03-21T02:05:48.612Z,983.05
2019-03-21T02:06:58.532Z,983.1
2019-03-21T02:08:08.564Z,983.05
2019-03-21T02:09:18.487Z,983.03
2019-03-21T02:10:28.413Z,982.98
2019-03-21T02:11:38.838Z,982.97
2019-03-21T02:12:48.915Z,982.96
2019-03-21T02:13:58.944Z,982.94
2019-03-21T02:15:08.874Z,982.91
2019-03-21T02:16:18.802Z,982.91
2019-03-21T02:17:28.724Z,982.89
2019-03-21T02:18:38.652Z,982.89
2019-03-21T02:19:48.577Z,982.87
2019-03-21T02:20:58.492Z,982.85
2019-03-21T02:22:08.416Z,982.82
2019-03-21T02:23:18.333Z,982.75
2019-03-21T02:24:28.261Z,982.71
2019-03-21T02:25:38.283Z,982.71
2019-03-21T02:26:48.205Z,982.6
2019-03-21T02:27:58.126Z,982.57
2019-03-21T02:29:08.089Z,982.56
2019-03-21T02:30:18.012Z,982.57
2019-03-21T02:31:27.950Z,982.52
2019-03-21T02:32:37.882Z,982.49
2019-03-21T02:33:47.814Z,982.46
2019-03-21T02:34:57.833Z,982.46
2019-03-21T02:36:08.106Z,982.46
2019-03-21T02:37:17.916Z,982.41
2019-03-21T02:38:27.888Z,982.41
2019-03-21T02:39:37.826Z,982.33
2019-03-21T02:41:01.448Z,982.37
2019-03-21T02:42:11.422Z,982.32
2019-03-21T02:43:21.482Z,982.29
2019-03-21T02:44:31.422Z,982.27
2019-03-21T02:45:41.806Z,982.29
2019-03-21T02:46:52.037Z,982.28
2019-03-21T02:48:01.707Z,982.31
2019-03-21T02:49:11.644Z,982.28
2019-03-21T02:50:21.613Z,982.28
2019-03-21T02:51:31.581Z,982.19
2019-03-21T02:52:41.504Z,982.2
2019-03-21T02:53:51.602Z,982.13
2019-03-21T02:55:01.544Z,982.12
2019-03-21T02:56:11.513Z,982.08
2019-03-21T02:57:21.458Z,982.06
2019-03-21T02:58:31.392Z,982.03
2019-03-21T02:59:41.426Z,982.07
2019-03-21T03:00:51.351Z,982.04
2019-03-21T03:02:01.291Z,982.03
2019-03-21T03:03:11.278Z,981.97
2019-03-21T03:04:21.224Z,981.96
2019-03-21T03:05:31.180Z,981.93
2019-03-21T03:06:41.127Z,981.93
2019-03-21T03:07:51.069Z,981.89
2019-03-21T03:09:01.038Z,981.9
2019-03-21T03:10:10.722Z,981.88
2019-03-21T03:11:20.762Z,981.9
2019-03-21T03:12:30.724Z,981.91
2019-03-21T03:13:40.692Z,981.88
2019-03-21T03:14:50.640Z,981.94
2019-03-21T03:16:00.572Z,981.88
2019-03-21T03:17:10.616Z,981.84
2019-03-21T03:18:20.559Z,981.7
2019-03-21T03:19:30.514Z,981.67
2019-03-21T03:20:40.448Z,981.74
2019-03-21T03:21:50.406Z,981.7
2019-03-21T03:23:00.357Z,981.72
2019-03-21T03:24:10.298Z,981.73
2019-03-21T03:25:19.984Z,981.66
2019-03-21T03:26:29.664Z,981.64
2019-03-21T03:27:39.620Z,981.54
2019-03-21T03:28:49.558Z,981.52
2019-03-21T03:29:59.515Z,981.56
2019-03-21T03:31:09.653Z,981.54
2019-03-21T03:32:19.616Z,981.56
2019-03-21T03:33:29.589Z,981.5
2019-03-21T03:34:39.708Z,981.46
2019-03-21T03:35:49.694Z,981.47
2019-03-21T03:36:59.618Z,981.56
2019-03-21T03:38:09.564Z,981.53
2019-03-21T03:39:19.506Z,981.48
2019-03-21T03:40:29.555Z,981.45
2019-03-21T03:41:39.536Z,981.37
2019-03-21T03:42:49.461Z,981.35
2019-03-21T03:43:59.388Z,981.39
2019-03-21T03:45:09.344Z,981.41
2019-03-21T03:46:19.273Z,981.32
2019-03-21T03:47:29.221Z,981.33
2019-03-21T03:48:39.144Z,981.26
2019-03-21T03:49:49.088Z,981.28
2019-03-21T03:50:59.047Z,981.19
2019-03-21T03:52:09.037Z,981.19
2019-03-21T03:53:19.081Z,981.09
2019-03-21T03:54:29.030Z,981.09
2019-03-21T03:55:38.983Z,981.14
2019-03-21T03:56:48.910Z,981.15
2019-03-21T03:57:58.854Z,981.08
2019-03-21T03:59:08.794Z,981.17
2019-03-21T04:00:18.719Z,981.11
2019-03-21T04:01:28.668Z,981.09
2019-03-21T04:02:38.606Z,981.1
2019-03-21T04:03:48.648Z,981.02
2019-03-21T04:04:58.676Z,981.03
2019-03-21T04:06:08.842Z,980.98
2019-03-21T04:07:18.795Z,980.99
2019-03-21T04:08:28.738Z,980.98
2019-03-21T04:09:38.725Z,981.02
2019-03-21T04:10:48.801Z,980.96
2019-03-21T04:11:58.836Z,981.03
2019-03-21T04:13:08.787Z,980.98
2019-03-21T04:14:18.745Z,980.98
2019-03-21T04:15:28.785Z,980.96
2019-03-21T04:16:52.278Z,980.93
2019-03-21T04:18:02.212Z,980.95
2019-03-21T04:19:12.143Z,980.95
2019-03-21T04:20:22.095Z,980.99
2019-03-21T04:21:32.204Z,980.98
2019-03-21T04:22:42.153Z,980.97
2019-03-21T04:23:52.101Z,980.93
2019-03-21T04:25:04.984Z,980.98
2019-03-21T04:26:15.046Z,980.87
2019-03-21T04:27:25.013Z,980.92
2019-03-21T04:28:34.947Z,980.93
2019-03-21T04:29:44.647Z,980.99
2019-03-21T04:30:54.652Z,980.86
2019-03-21T04:32:04.702Z,980.89
2019-03-21T04:33:14.636Z,980.85
2019-03-21T04:34:27.603Z,980.92
2019-03-21T04:35:37.532Z,980.9
2019-03-21T04:36:47.474Z,980.85
2019-03-21T04:37:57.402Z,980.84
2019-03-21T04:39:07.356Z,980.84
2019-03-21T04:40:17.300Z,980.85
2019-03-21T04:41:27.232Z,980.84
2019-03-21T04:42:37.156Z,980.87
2019-03-21T04:43:47.232Z,980.77
2019-03-21T04:44:57.161Z,980.75
2019-03-21T04:46:07.095Z,980.7
2019-03-21T04:47:17.021Z,980.79
2019-03-21T04:48:26.939Z,980.8
2019-03-21T04:49:36.863Z,980.79
2019-03-21T04:50:46.792Z,980.78
2019-03-21T04:51:56.725Z,980.75
2019-03-21T04:53:06.651Z,980.71
2019-03-21T04:54:16.573Z,980.71
2019-03-21T04:55:26.507Z,980.75
2019-03-21T04:56:36.440Z,980.72
2019-03-21T04:57:46.366Z,980.67
2019-03-21T04:58:56.286Z,980.68
2019-03-21T05:00:06.227Z,980.6
2019-03-21T05:01:16.254Z,980.64
2019-03-21T05:02:26.182Z,980.59
2019-03-21T05:03:36.110Z,980.54
2019-03-21T05:04:46.031Z,980.61
2019-03-21T05:05:55.954Z,980.6
2019-03-21T05:07:05.744Z,980.54
2019-03-21T05:08:15.673Z,980.54
2019-03-21T05:09:25.618Z,980.57
2019-03-21T05:10:35.544Z,980.67
2019-03-21T05:11:45.465Z,980.67
2019-03-21T05:12:55.395Z,980.74
2019-03-21T05:14:05.311Z,980.71
2019-03-21T05:15:15.235Z,980.66
2019-03-21T05:16:25.175Z,980.68
2019-03-21T05:17:34.857Z,980.73
2019-03-21T05:18:44.831Z,980.72
2019-03-21T05:19:54.756Z,980.7
2019-03-21T05:21:04.684Z,980.67
2019-03-21T05:22:14.602Z,980.66
2019-03-21T05:23:24.518Z,980.65
2019-03-21T05:24:34.459Z,980.71
2019-03-21T05:25:44.390Z,980.69
2019-03-21T05:26:54.340Z,980.72
2019-03-21T05:28:04.268Z,980.69
2019-03-21T05:29:14.192Z,980.68
2019-03-21T05:30:24.113Z,980.71
2019-03-21T05:31:34.030Z,980.64
2019-03-21T05:32:43.976Z,980.64
2019-03-21T05:33:54.560Z,980.63
2019-03-21T05:35:04.485Z,980.59
2019-03-21T05:36:14.464Z,980.65
2019-03-21T05:37:24.429Z,980.56
2019-03-21T05:38:34.361Z,980.62
2019-03-21T05:39:44.288Z,980.6
2019-03-21T05:40:54.211Z,980.49
2019-03-21T05:42:04.249Z,980.49
2019-03-21T05:43:14.170Z,980.47
2019-03-21T05:44:24.090Z,980.57
2019-03-21T05:45:36.076Z,980.62
2019-03-21T05:46:46.019Z,980.59
2019-03-21T05:47:56.000Z,980.69
2019-03-21T05:49:05.682Z,980.66
2019-03-21T05:50:15.600Z,980.6
2019-03-21T05:51:25.520Z,980.74
2019-03-21T05:52:35.453Z,980.65
2019-03-21T05:53:45.432Z,980.65
2019-03-21T05:54:55.361Z,980.63
2019-03-21T05:56:05.498Z,980.59
2019-03-21T05:57:15.431Z,980.61
2019-03-21T05:58:25.356Z,980.59
2019-03-21T05:59:35.279Z,980.59
2019-03-21T06:00:45.197Z,980.6
2019-03-21T06:01:56.595Z,980.58
2019-03-21T06:03:06.534Z,980.57
2019-03-21T06:04:16.456Z,980.55
2019-03-21T06:05:26.484Z,980.63
2019-03-21T06:06:36.409Z,980.52
2019-03-21T06:07:46.340Z,980.56
2019-03-21T06:08:56.271Z,980.55
2019-03-21T06:10:06.198Z,980.53
2019-03-21T06:11:16.218Z,980.55
2019-03-21T06:12:26.133Z,980.53
2019-03-21T06:13:36.052Z,980.55
2019-03-21T06:14:45.984Z,980.58
2019-03-21T06:15:55.904Z,980.57
2019-03-21T06:17:05.826Z,980.57
2019-03-21T06:18:15.750Z,980.55
2019-03-21T06:19:25.676Z,980.55
2019-03-21T06:20:35.611Z,980.56
2019-03-21T06:21:45.539Z,980.59
2019-03-21T06:22:55.457Z,980.56
2019-03-21T06:24:05.377Z,980.57
2019-03-21T06:25:15.910Z,980.58
2019-03-21T06:26:26.017Z,980.59
2019-03-21T06:27:35.705Z,980.59
2019-03-21T06:28:45.687Z,980.64
2019-03-21T06:29:55.624Z,980.62
2019-03-21T06:31:05.674Z,980.62
2019-03-21T06:32:15.632Z,980.59
2019-03-21T06:33:25.312Z,980.61
2019-03-21T06:34:35.340Z,980.56
2019-03-21T06:35:45.263Z,980.56
2019-03-21T06:36:55.196Z,980.59
2019-03-21T06:38:05.119Z,980.6
2019-03-21T06:39:15.062Z,980.68
2019-03-21T06:40:24.984Z,980.68
2019-03-21T06:41:34.920Z,980.68
2019-03-21T06:42:44.894Z,980.67
2019-03-21T06:43:54.822Z,980.71
2019-03-21T06:45:04.756Z,980.72
2019-03-21T06:46:14.735Z,980.71
2019-03-21T06:47:24.656Z,980.65
2019-03-21T06:48:34.582Z,980.68
2019-03-21T06:49:46.446Z,980.65
2019-03-21T06:50:56.575Z,980.62
2019-03-21T06:52:06.501Z,980.65
2019-03-21T06:53:16.422Z,980.63
2019-03-21T06:54:26.393Z,980.68
2019-03-21T06:55:36.628Z,980.7
2019-03-21T06:56:46.557Z,980.7
2019-03-21T06:57:56.482Z,980.72
2019-03-21T06:59:06.411Z,980.79
2019-03-21T07:00:16.366Z,980.8
2019-03-21T07:01:27.930Z,980.82
2019-03-21T07:02:37.853Z,980.83
2019-03-21T07:03:47.830Z,980.91
2019-03-21T07:05:09.391Z,980.83
2019-03-21T07:06:19.315Z,980.92
2019-03-21T07:07:29.243Z,980.93
2019-03-21T07:08:39.183Z,981.04
2019-03-21T07:09:49.111Z,981.02
2019-03-21T07:10:59.037Z,981.07
2019-03-21T07:12:08.968Z,981.07
2019-03-21T07:13:18.889Z,981.06
2019-03-21T07:14:28.919Z,981.03
2019-03-21T07:15:38.843Z,981.01
2019-03-21T07:16:59.721Z,981.03
2019-03-21T07:18:09.940Z,981.04
2019-03-21T07:19:19.893Z,981.02
2019-03-21T07:20:29.929Z,980.98
2019-03-21T07:21:39.861Z,981.04
2019-03-21T07:22:49.549Z,980.96
2019-03-21T07:23:59.575Z,980.95
2019-03-21T07:25:09.256Z,980.98
2019-03-21T07:26:19.186Z,980.97
2019-03-21T07:27:29.112Z,981.01
2019-03-21T07:28:39.050Z,981.07
2019-03-21T07:29:49.043Z,981.07
2019-03-21T07:30:58.973Z,981.03
2019-03-21T07:32:08.904Z,981.04
2019-03-21T07:33:18.827Z,981.03
2019-03-21T07:34:28.792Z,981.03
2019-03-21T07:35:38.719Z,981.07
2019-03-21T07:36:48.748Z,981.04
2019-03-21T07:37:58.684Z,981.09
2019-03-21T07:39:08.622Z,981.05
2019-03-21T07:40:18.579Z,981.03
2019-03-21T07:41:28.504Z,981.08
2019-03-21T07:42:38.543Z,981.15
2019-03-21T07:43:48.483Z,981.1
2019-03-21T07:44:58.410Z,981.17
2019-03-21T07:46:08.339Z,981.2
2019-03-21T07:47:18.273Z,981.23
2019-03-21T07:48:28.427Z,981.19
2019-03-21T07:49:38.360Z,981.23
2019-03-21T07:50:48.294Z,981.21
2019-03-21T07:51:57.980Z,981.28
2019-03-21T07:53:07.919Z,981.22
2019-03-21T07:54:17.895Z,981.2
2019-03-21T07:55:27.826Z,981.27
2019-03-21T07:56:37.763Z,981.25
2019-03-21T07:57:47.432Z,981.3
2019-03-21T07:58:59.945Z,981.3
2019-03-21T08:00:09.888Z,981.37
2019-03-21T08:01:19.825Z,981.37
2019-03-21T08:02:29.760Z,981.43
2019-03-21T08:03:39.436Z,981.4
2019-03-21T08:04:49.365Z,981.4
2019-03-21T08:05:59.290Z,981.34
2019-03-21T08:07:09.214Z,981.45
2019-03-21T08:08:19.137Z,981.5
2019-03-21T08:09:29.096Z,981.51
2019-03-21T08:10:39.405Z,981.45
2019-03-21T08:11:49.417Z,981.47
2019-03-21T08:12:59.347Z,981.48
2019-03-21T08:14:09.273Z,981.52
2019-03-21T08:15:19.201Z,981.53
2019-03-21T08:16:29.123Z,981.54
2019-03-21T08:17:39.068Z,981.6
2019-03-21T08:18:49.011Z,981.54
2019-03-21T08:19:58.938Z,981.56
2019-03-21T08:21:08.870Z,981.55
2019-03-21T08:22:18.794Z,981.54
2019-03-21T08:23:28.718Z,981.57
2019-03-21T08:24:38.644Z,981.63
2019-03-21T08:25:48.569Z,981.65
2019-03-21T08:26:58.494Z,981.6
2019-03-21T08:28:08.426Z,981.64
2019-03-21T08:29:18.399Z,981.69
2019-03-21T08:30:28.385Z,981.68
2019-03-21T08:31:38.322Z,981.71
2019-03-21T08:32:48.292Z,981.69
2019-03-21T08:33:58.218Z,981.67
2019-03-21T08:35:08.166Z,981.68
2019-03-21T08:36:18.087Z,981.65
2019-03-21T08:37:28.016Z,981.67
2019-03-21T08:38:37.944Z,981.68
2019-03-21T08:39:47.869Z,981.7
2019-03-21T08:40:57.800Z,981.67
2019-03-21T08:42:07.724Z,981.73
2019-03-21T08:43:17.656Z,981.77
2019-03-21T08:44:27.611Z,981.77
2019-03-21T08:45:37.543Z,981.78
2019-03-21T08:46:47.519Z,981.78
2019-03-21T08:47:57.443Z,981.78
2019-03-21T08:49:07.377Z,981.87
2019-03-21T08:50:17.303Z,981.75
2019-03-21T08:51:27.240Z,981.86
2019-03-21T08:52:37.168Z,981.8
2019-03-21T08:53:47.096Z,981.78
2019-03-21T08:54:57.026Z,981.83
2019-03-21T08:56:06.465Z,981.82
2019-03-21T08:57:16.392Z,981.8
2019-03-21T08:58:26.317Z,981.82
2019-03-21T08:59:36.243Z,981.85
2019-03-21T09:00:48.507Z,981.87
2019-03-21T09:01:58.434Z,981.9
2019-03-21T09:03:08.114Z,981.89
2019-03-21T09:04:18.089Z,981.92
2019-03-21T09:05:28.018Z,981.9
2019-03-21T09:06:37.948Z,981.91
2019-03-21T09:07:47.881Z,981.92
2019-03-21T09:08:57.812Z,981.91
2019-03-21T09:10:08.082Z,981.93
2019-03-21T09:11:17.880Z,981.92
2019-03-21T09:12:27.817Z,981.92
2019-03-21T09:13:37.753Z,982.03
2019-03-21T09:14:47.705Z,982.09
2019-03-21T09:15:57.631Z,982.08
2019-03-21T09:17:07.574Z,982.09
2019-03-21T09:18:17.501Z,982.1
2019-03-21T09:19:27.182Z,982.08
2019-03-21T09:20:37.114Z,982.04
2019-03-21T09:21:47.141Z,982.04
2019-03-21T09:22:57.076Z,982.09
2019-03-21T09:24:07.008Z,982.06
2019-03-21T09:25:16.689Z,982.01
2019-03-21T09:26:26.618Z,982.03
2019-03-21T09:27:36.544Z,982.11
2019-03-21T09:28:46.472Z,982.07
2019-03-21T09:29:56.399Z,982.12
2019-03-21T09:31:06.349Z,982.13
2019-03-21T09:32:16.348Z,982.17
2019-03-21T09:33:26.693Z,982.19
2019-03-21T09:34:36.634Z,982.13
2019-03-21T09:35:46.559Z,982.17
2019-03-21T09:36:56.493Z,982.17
2019-03-21T09:38:09.211Z,982.14
2019-03-21T09:39:19.190Z,982.09
2019-03-21T09:40:29.113Z,982.05
2019-03-21T09:41:39.037Z,982.15
2019-03-21T09:42:48.965Z,982.21
2019-03-21T09:43:58.897Z,982.24
2019-03-21T09:45:08.675Z,982.22
2019-03-21T09:46:18.606Z,982.29
2019-03-21T09:47:28.580Z,982.35
2019-03-21T09:48:38.523Z,982.39
2019-03-21T09:49:48.455Z,982.4
2019-03-21T09:50:59.810Z,982.31
2019-03-21T09:52:09.740Z,982.29
2019-03-21T09:53:19.667Z,982.32
2019-03-21T09:54:29.598Z,982.37
2019-03-21T09:55:39.605Z,982.36
2019-03-21T09:56:49.599Z,982.33
2019-03-21T09:57:59.549Z,982.34
2019-03-21T09:59:09.485Z,982.37
2019-03-21T10:00:19.415Z,982.39
2019-03-21T10:01:29.344Z,982.36
2019-03-21T10:02:39.267Z,982.3
2019-03-21T10:03:49.203Z,982.34
2019-03-21T10:04:59.132Z,982.4
2019-03-21T10:06:09.080Z,982.4
2019-03-21T10:07:19.016Z,982.41
2019-03-21T10:08:28.955Z,982.4
2019-03-21T10:09:38.886Z,982.38
2019-03-21T10:10:48.812Z,982.36
2019-03-21T10:11:58.750Z,982.38
2019-03-21T10:13:08.697Z,982.42
2019-03-21T10:14:18.674Z,982.45
2019-03-21T10:15:28.603Z,982.5
2019-03-21T10:16:38.631Z,982.46
2019-03-21T10:17:48.558Z,982.48
2019-03-21T10:18:58.493Z,982.52
2019-03-21T10:20:08.493Z,982.5
2019-03-21T10:21:18.423Z,982.53
2019-03-21T10:22:28.351Z,982.54
2019-03-21T10:23:38.280Z,982.58
2019-03-21T10:24:48.257Z,982.65
2019-03-21T10:25:58.185Z,982.68
2019-03-21T10:27:08.110Z,982.66
2019-03-21T10:28:18.108Z,982.68
2019-03-21T10:29:28.031Z,982.59
2019-03-21T10:30:37.971Z,982.63
2019-03-21T10:31:47.948Z,982.64
2019-03-21T10:32:57.892Z,982.69
2019-03-21T10:34:07.826Z,982.71
2019-03-21T10:35:17.766Z,982.73
2019-03-21T10:36:27.694Z,982.72
2019-03-21T10:37:37.627Z,982.72
2019-03-21T10:38:47.562Z,982.71
2019-03-21T10:39:57.496Z,982.71
2019-03-21T10:41:07.173Z,982.69
2019-03-21T10:42:17.122Z,982.67
2019-03-21T10:43:26.796Z,982.65
2019-03-21T10:44:36.727Z,982.71
2019-03-21T10:45:46.716Z,982.7
2019-03-21T10:46:56.659Z,982.69
2019-03-21T10:48:06.593Z,982.67
2019-03-21T10:49:16.323Z,982.69
2019-03-21T10:50:26.262Z,982.7
2019-03-21T10:51:36.192Z,982.68
2019-03-21T10:52:57.217Z,982.65
2019-03-21T10:54:07.157Z,982.64
2019-03-21T10:55:17.087Z,982.65
2019-03-21T10:56:27.019Z,982.66
2019-03-21T10:57:36.954Z,982.65
2019-03-21T10:58:46.935Z,982.72
2019-03-21T10:59:56.859Z,982.78
2019-03-21T11:01:09.502Z,982.74
2019-03-21T11:02:19.431Z,982.8
2019-03-21T11:03:29.375Z,982.87
2019-03-21T11:04:39.299Z,982.83
2019-03-21T11:05:49.285Z,982.8
2019-03-21T11:06:59.218Z,982.78
2019-03-21T11:08:09.147Z,982.79
2019-03-21T11:09:19.081Z,982.84
2019-03-21T11:10:29.007Z,982.87
2019-03-21T11:11:38.987Z,982.88
2019-03-21T11:12:48.922Z,982.99
2019-03-21T11:13:58.880Z,982.92
2019-03-21T11:15:08.812Z,983.03
2019-03-21T11:16:18.744Z,983.06
2019-03-21T11:17:28.779Z,983.04
2019-03-21T11:18:38.711Z,983.06
2019-03-21T11:19:48.642Z,982.78
2019-03-21T11:20:58.589Z,983.04
2019-03-21T11:22:08.286Z,982.94
2019-03-21T11:23:18.357Z,982.92
2019-03-21T11:24:28.308Z,982.95
2019-03-21T11:25:38.236Z,982.99
2019-03-21T11:26:48.184Z,983.08
2019-03-21T11:27:57.933Z,983.13
2019-03-21T11:29:07.867Z,983.18
2019-03-21T11:30:17.813Z,983.24
2019-03-21T11:31:27.748Z,983.22
2019-03-21T11:32:37.821Z,983.17
2019-03-21T11:33:47.797Z,983.13
2019-03-21T11:34:57.751Z,983.23
2019-03-21T11:36:07.802Z,983.09
2019-03-21T11:37:17.753Z,983.26
2019-03-21T11:38:27.693Z,983.19
2019-03-21T11:39:37.623Z,983.33
2019-03-21T11:40:48.496Z,983.29
2019-03-21T11:41:58.631Z,983.03
2019-03-21T11:43:08.606Z,982.99
2019-03-21T11:44:18.632Z,983.05
2019-03-21T11:45:28.597Z,983.22
2019-03-21T11:46:38.608Z,983.11
2019-03-21T11:47:48.594Z,983.19
2019-03-21T11:49:00.409Z,983.18
2019-03-21T11:50:10.370Z,983.24
2019-03-21T11:51:20.361Z,983.2
2019-03-21T11:52:30.344Z,983.22
2019-03-21T11:53:41.733Z,983.22
2019-03-21T11:54:51.690Z,983.24
2019-03-21T11:56:01.703Z,983.14
2019-03-21T11:57:13.582Z,983.16
2019-03-21T11:58:23.566Z,983.27
2019-03-21T11:59:46.441Z,983.29
2019-03-21T12:01:00.728Z,983.22
2019-03-21T12:02:10.664Z,983.19
2019-03-21T12:03:31.662Z,983.34
2019-03-21T12:04:41.604Z,983.34
2019-03-21T12:05:51.533Z,983.24
2019-03-21T12:07:01.473Z,983.15
2019-03-21T12:08:11.409Z,983.24
2019-03-21T12:09:21.107Z,983.33
2019-03-21T12:10:31.065Z,983.3
2019-03-21T12:11:40.999Z,983.33
2019-03-21T12:12:50.934Z,983.29
2019-03-21T12:14:00.867Z,983.24
2019-03-21T12:15:10.865Z,983.24
2019-03-21T12:16:20.805Z,983.28
2019-03-21T12:17:30.490Z,983.43
2019-03-21T12:18:40.447Z,983.41
2019-03-21T12:19:50.384Z,983.34
2019-03-21T12:21:00.337Z,983.31
2019-03-21T12:22:10.274Z,983.33
2019-03-21T12:23:31.993Z,983.41
2019-03-21T12:24:41.933Z,983.41
2019-03-21T12:25:51.870Z,983.43
2019-03-21T12:27:01.812Z,983.37
2019-03-21T12:28:11.742Z,983.39
2019-03-21T12:29:21.673Z,983.41
2019-03-21T12:30:31.641Z,983.66
2019-03-21T12:31:41.659Z,983.72
2019-03-21T12:32:51.590Z,983.75
2019-03-21T12:34:01.527Z,983.77
2019-03-21T12:35:11.488Z,983.38
2019-03-21T12:36:21.419Z,983.44
2019-03-21T12:37:31.355Z,983.47
2019-03-21T12:38:41.290Z,983.5
2019-03-21T12:39:51.293Z,983.55
2019-03-21T12:41:01.230Z,983.59
2019-03-21T12:42:11.192Z,983.57
2019-03-21T12:43:21.125Z,983.56
2019-03-21T12:44:31.068Z,983.62
2019-03-21T12:45:41.081Z,983.82
2019-03-21T12:46:51.023Z,983.93
2019-03-21T12:48:00.961Z,983.95
2019-03-21T12:49:10.947Z,983.87
2019-03-21T12:50:20.887Z,983.55
2019-03-21T12:51:30.830Z,983.57
2019-03-21T12:52:41.699Z,983.73
2019-03-21T12:53:51.720Z,983.87
2019-03-21T12:55:01.443Z,983.9
2019-03-21T12:56:11.395Z,983.52
2019-03-21T12:57:21.332Z,983.99
2019-03-21T12:58:31.271Z,983.93
2019-03-21T12:59:41.213Z,983.59
2019-03-21T13:00:51.157Z,984.16
2019-03-21T13:02:01.107Z,983.62
2019-03-21T13:03:11.056Z,983.67
2019-03-21T13:04:21.005Z,984.1
2019-03-21T13:05:30.942Z,983.87
2019-03-21T13:06:40.938Z,983.94
2019-03-21T13:07:50.882Z,984.02
2019-03-21T13:09:00.817Z,984.11
2019-03-21T13:10:10.763Z,984.12
2019-03-21T13:11:20.696Z,984.19
2019-03-21T13:12:30.633Z,983.94
2019-03-21T13:13:40.578Z,983.82
2019-03-21T13:14:50.519Z,983.95
2019-03-21T13:16:00.458Z,983.92
2019-03-21T13:17:10.394Z,983.95
2019-03-21T13:18:20.334Z,984
2019-03-21T13:19:30.275Z,984.03
2019-03-21T13:20:40.213Z,984.08
2019-03-21T13:21:50.162Z,984.12
2019-03-21T13:23:00.101Z,984.18
2019-03-21T13:24:10.094Z,984.16
2019-03-21T13:25:24.365Z,984.19
2019-03-21T13:26:34.302Z,984.43
2019-03-21T13:27:44.252Z,984.47
2019-03-21T13:28:54.195Z,984.31
2019-03-21T13:30:04.180Z,984.56
2019-03-21T13:31:14.120Z,984.38
2019-03-21T13:32:24.058Z,984.11
2019-03-21T13:33:33.995Z,984.3
2019-03-21T13:34:43.931Z,984.53
2019-03-21T13:35:53.875Z,984.53
2019-03-21T13:37:03.623Z,984.42
2019-03-21T13:38:13.568Z,984.37
2019-03-21T13:39:23.508Z,984.55
2019-03-21T13:40:33.438Z,984.54
2019-03-21T13:41:43.427Z,984.49
2019-03-21T13:42:53.358Z,984.58
2019-03-21T13:44:03.298Z,984.52
2019-03-21T13:45:13.241Z,984.54
2019-03-21T13:46:23.214Z,984.77
2019-03-21T13:47:33.152Z,984.82
2019-03-21T13:48:43.084Z,984.72
2019-03-21T13:49:53.018Z,984.71
2019-03-21T13:51:03.162Z,984.76
2019-03-21T13:52:13.092Z,984.77
2019-03-21T13:53:23.034Z,984.82
2019-03-21T13:54:32.960Z,984.84
2019-03-21T13:55:42.895Z,984.89
2019-03-21T13:56:52.826Z,985.2
2019-03-21T13:58:02.769Z,985.05
2019-03-21T13:59:12.762Z,984.84
2019-03-21T14:00:22.701Z,985.07
2019-03-21T14:01:32.635Z,984.97
2019-03-21T14:02:42.331Z,984.87
2019-03-21T14:03:52.379Z,984.84
2019-03-21T14:05:04.632Z,984.65
2019-03-21T14:06:14.578Z,984.7
2019-03-21T14:07:24.510Z,984.83
2019-03-21T14:08:34.443Z,984.71
2019-03-21T14:09:44.373Z,984.69
2019-03-21T14:10:54.310Z,984.85
2019-03-21T14:12:04.247Z,984.85
2019-03-21T14:13:13.954Z,984.89
2019-03-21T14:14:23.888Z,984.8
2019-03-21T14:15:33.831Z,984.98
2019-03-21T14:16:43.879Z,984.92
2019-03-21T14:17:56.116Z,984.88
2019-03-21T14:19:06.045Z,984.92
2019-03-21T14:20:15.728Z,985.06
2019-03-21T14:21:25.683Z,984.98
2019-03-21T14:22:35.613Z,985.03
2019-03-21T14:23:45.553Z,984.85
2019-03-21T14:24:55.245Z,984.94
2019-03-21T14:26:05.176Z,985.09
2019-03-21T14:27:15.110Z,985.16
2019-03-21T14:28:26.558Z,985.17
2019-03-21T14:29:36.494Z,985.24
2019-03-21T14:30:46.425Z,985.41
2019-03-21T14:31:56.359Z,985.25
2019-03-21T14:33:08.233Z,985.34
2019-03-21T14:34:18.413Z,985.39
2019-03-21T14:35:28.362Z,985.37
2019-03-21T14:36:38.300Z,985.56
2019-03-21T14:37:48.046Z,985.54